createdAt,value
2023-03-12T00:01:37.959Z,13.20
2023-03-12T00:04:06.566Z,13.30
2023-03-12T00:06:34.955Z,13.30
2023-03-12T00:09:05.079Z,13.20
2023-03-12T00:11:33.520Z,13.20
2023-03-12T00:14:01.993Z,13.20
2023-03-12T00:16:30.503Z,13.20
2023-03-12T00:18:58.923Z,13.10
2023-03-12T00:21:27.353Z,13.10
2023-03-12T00:23:55.796Z,13.10
2023-03-12T00:26:25.604Z,13.10
2023-03-12T00:28:54.126Z,13.20
2023-03-12T00:31:23.538Z,13.20
2023-03-12T00:33:52.154Z,13.20
2023-03-12T00:36:24.421Z,13.20
2023-03-12T00:38:53.200Z,13.20
2023-03-12T00:41:21.650Z,13.30
2023-03-12T00:43:52.200Z,13.30
2023-03-12T00:46:21.062Z,13.30
2023-03-12T00:48:49.453Z,13.40
2023-03-12T00:51:17.865Z,13.40
2023-03-12T00:53:46.300Z,13.40
2023-03-12T00:56:14.697Z,13.40
2023-03-12T00:58:43.428Z,13.40
2023-03-12T01:01:13.503Z,13.40
2023-03-12T01:03:41.966Z,13.40
2023-03-12T01:06:10.422Z,13.50
2023-03-12T01:11:21.687Z,13.60
2023-03-12T01:13:50.074Z,13.60
2023-03-12T01:16:20.007Z,13.70
2023-03-12T01:18:48.439Z,13.70
2023-03-12T01:21:16.882Z,13.70
2023-03-12T01:23:45.322Z,13.70
2023-03-12T01:26:13.814Z,13.60
2023-03-12T01:28:42.189Z,13.60
2023-03-12T01:31:11.396Z,13.60
2023-03-12T01:33:41.397Z,13.60
2023-03-12T01:36:16.631Z,13.60
2023-03-12T01:38:45.175Z,13.60
2023-03-12T01:41:13.541Z,13.50
2023-03-12T01:43:41.976Z,13.40
2023-03-12T01:46:26.940Z,13.40
2023-03-12T01:48:58.535Z,13.50
2023-03-12T01:51:27.948Z,13.50
2023-03-12T01:53:58.738Z,13.50
2023-03-12T01:56:28.188Z,13.50
2023-03-12T01:58:59.768Z,13.50
2023-03-12T02:01:29.095Z,13.50
2023-03-12T02:03:59.954Z,13.50
2023-03-12T02:06:31.914Z,13.50
2023-03-12T02:09:02.532Z,13.40
2023-03-12T02:11:30.978Z,13.40
2023-03-12T02:13:59.444Z,13.50
2023-03-12T02:16:28.158Z,13.40
2023-03-12T02:18:57.507Z,13.30
2023-03-12T02:21:29.487Z,13.30
2023-03-12T02:24:01.483Z,13.30
2023-03-12T02:26:32.088Z,13.30
2023-03-12T02:29:01.432Z,13.30
2023-03-12T02:31:30.819Z,13.30
2023-03-12T02:34:00.725Z,13.20
2023-03-12T02:36:29.309Z,13.10
2023-03-12T02:38:57.811Z,13.00
2023-03-12T02:41:28.112Z,12.90
2023-03-12T02:44:00.846Z,12.90
2023-03-12T02:46:30.453Z,12.90
2023-03-12T02:48:59.092Z,12.90
2023-03-12T02:51:27.530Z,13.00
2023-03-12T02:53:55.977Z,13.10
2023-03-12T02:56:25.580Z,13.10
2023-03-12T02:58:54.398Z,13.20
2023-03-12T03:01:24.260Z,13.30
2023-03-12T03:03:52.844Z,13.30
2023-03-12T03:06:21.441Z,13.20
2023-03-12T03:08:49.868Z,13.30
2023-03-12T03:11:18.349Z,13.30
2023-03-12T03:13:46.755Z,13.20
2023-03-12T03:16:15.262Z,13.20
2023-03-12T03:18:45.101Z,13.20
2023-03-12T03:21:16.670Z,13.20
2023-03-12T03:26:39.046Z,13.20
2023-03-12T03:29:07.476Z,13.10
2023-03-12T03:31:35.963Z,13.20
2023-03-12T03:34:05.944Z,13.20
2023-03-12T03:36:34.334Z,13.20
2023-03-12T03:39:02.921Z,13.20
2023-03-12T03:41:32.830Z,13.20
2023-03-12T03:44:01.348Z,13.20
2023-03-12T03:46:29.796Z,13.20
2023-03-12T03:48:58.743Z,13.20
2023-03-12T03:51:28.573Z,13.10
2023-03-12T03:53:57.250Z,13.10
2023-03-12T03:56:25.676Z,13.10
2023-03-12T03:58:54.147Z,13.10
2023-03-12T04:01:22.544Z,13.10
2023-03-12T04:03:50.978Z,13.00
2023-03-12T04:06:19.410Z,13.00
2023-03-12T04:08:49.212Z,13.00
2023-03-12T04:11:19.185Z,13.00
2023-03-12T04:16:30.198Z,12.90
2023-03-12T04:18:58.611Z,12.90
2023-03-12T04:21:27.000Z,12.90
2023-03-12T04:23:56.834Z,12.90
2023-03-12T04:26:25.283Z,12.90
2023-03-12T04:28:53.707Z,12.90
2023-03-12T04:31:22.227Z,12.90
2023-03-12T04:33:50.717Z,12.90
2023-03-12T04:36:19.291Z,12.80
2023-03-12T04:38:47.754Z,12.80
2023-03-12T04:41:17.968Z,12.70
2023-03-12T04:43:46.403Z,12.70
2023-03-12T04:46:15.057Z,12.70
2023-03-12T04:48:43.543Z,12.70
2023-03-12T04:51:11.997Z,12.70
2023-03-12T04:53:42.343Z,12.80
2023-03-12T04:56:10.919Z,12.70
2023-03-12T04:58:40.730Z,12.80
2023-03-12T05:01:09.146Z,12.80
2023-03-12T05:03:38.581Z,12.70
2023-03-12T05:06:07.065Z,12.80
2023-03-12T05:08:35.482Z,12.80
2023-03-12T05:11:03.827Z,12.80
2023-03-12T05:13:32.230Z,12.80
2023-03-12T05:16:02.057Z,12.80
2023-03-12T05:18:30.579Z,12.80
2023-03-12T05:20:59.895Z,12.80
2023-03-12T05:23:28.412Z,12.80
2023-03-12T05:25:57.284Z,12.90
2023-03-12T05:28:28.452Z,12.90
2023-03-12T05:30:57.406Z,12.80
2023-03-12T05:33:27.784Z,12.80
2023-03-12T05:35:56.195Z,12.80
2023-03-12T05:38:24.628Z,12.80
2023-03-12T05:40:54.515Z,12.80
2023-03-12T05:43:22.994Z,12.80
2023-03-12T05:45:51.497Z,12.80
2023-03-12T05:48:20.189Z,12.70
2023-03-12T05:50:50.022Z,12.80
2023-03-12T05:53:18.564Z,12.70
2023-03-12T05:55:47.015Z,12.80
2023-03-12T05:58:15.506Z,12.70
2023-03-12T06:00:44.477Z,12.80
2023-03-12T06:03:13.329Z,12.70
2023-03-12T06:05:41.878Z,12.50
2023-03-12T06:08:11.735Z,12.40
2023-03-12T06:10:40.257Z,12.30
2023-03-12T06:13:08.939Z,12.30
2023-03-12T06:15:37.462Z,12.40
2023-03-12T06:18:05.917Z,12.40
2023-03-12T06:20:34.354Z,12.50
2023-03-12T06:23:02.789Z,12.60
2023-03-12T06:25:32.750Z,12.70
2023-03-12T06:28:01.159Z,12.80
2023-03-12T06:30:29.624Z,12.70
2023-03-12T06:32:58.110Z,12.60
2023-03-12T06:35:26.672Z,12.60
2023-03-12T06:37:55.158Z,12.50
2023-03-12T06:40:23.506Z,12.40
2023-03-12T06:42:53.287Z,12.30
2023-03-12T06:45:21.746Z,12.20
2023-03-12T06:47:50.131Z,12.20
2023-03-12T06:50:18.713Z,12.30
2023-03-12T06:52:47.228Z,12.50
2023-03-12T06:55:15.657Z,12.70
2023-03-12T06:57:44.019Z,12.60
2023-03-12T07:00:15.200Z,12.60
2023-03-12T07:02:43.632Z,12.50
2023-03-12T07:05:12.055Z,12.40
2023-03-12T07:07:40.505Z,12.30
2023-03-12T07:10:09.357Z,12.40
2023-03-12T07:12:37.762Z,12.40
2023-03-12T07:15:06.749Z,12.40
2023-03-12T07:17:36.754Z,12.30
2023-03-12T07:20:05.457Z,12.20
2023-03-12T07:22:33.940Z,12.20
2023-03-12T07:25:02.337Z,12.20
2023-03-12T07:27:30.704Z,12.20
2023-03-12T07:29:59.157Z,12.20
2023-03-12T07:32:27.594Z,12.30
2023-03-12T07:34:57.469Z,12.30
2023-03-12T07:37:25.963Z,12.20
2023-03-12T07:39:54.958Z,12.20
2023-03-12T07:42:23.565Z,12.30
2023-03-12T07:44:52.085Z,12.20
2023-03-12T07:47:23.996Z,12.20
2023-03-12T07:49:54.104Z,12.20
2023-03-12T07:52:24.093Z,12.10
2023-03-12T07:54:54.418Z,12.10
2023-03-12T07:57:23.268Z,12.10
2023-03-12T07:59:52.407Z,12.10
2023-03-12T08:02:21.068Z,12.10
2023-03-12T08:04:49.590Z,12.10
2023-03-12T08:07:18.093Z,12.10
2023-03-12T08:09:49.579Z,12.20
2023-03-12T08:12:18.146Z,12.20
2023-03-12T08:14:46.808Z,12.20
2023-03-12T08:17:15.365Z,12.20
2023-03-12T08:19:44.142Z,12.20
2023-03-12T08:22:12.672Z,12.20
2023-03-12T08:24:53.385Z,12.20
2023-03-12T08:27:23.403Z,12.20
2023-03-12T08:29:51.866Z,12.30
2023-03-12T08:32:20.395Z,12.20
2023-03-12T08:34:48.858Z,12.20
2023-03-12T08:37:17.852Z,12.20
2023-03-12T08:39:46.267Z,12.10
2023-03-12T08:42:14.684Z,12.00
2023-03-12T08:44:44.465Z,12.10
2023-03-12T08:47:12.855Z,12.10
2023-03-12T08:49:41.928Z,12.10
2023-03-12T08:52:10.347Z,12.20
2023-03-12T08:54:38.829Z,12.20
2023-03-12T08:57:07.290Z,12.10
2023-03-12T08:59:35.698Z,12.00
2023-03-12T09:02:05.538Z,12.10
2023-03-12T09:04:34.053Z,12.10
2023-03-12T09:07:02.524Z,12.20
2023-03-12T09:09:31.045Z,12.30
2023-03-12T09:11:59.503Z,12.30
2023-03-12T09:15:01.619Z,12.30
2023-03-12T09:17:17.673Z,12.40
2023-03-12T09:19:46.336Z,12.30
2023-03-12T09:22:14.755Z,12.30
2023-03-12T09:24:43.147Z,12.40
2023-03-12T09:27:11.677Z,12.50
2023-03-12T09:29:53.448Z,12.50
2023-03-12T09:32:29.123Z,12.50
2023-03-12T09:34:57.678Z,12.60
2023-03-12T09:37:26.219Z,12.60
2023-03-12T09:39:54.891Z,12.60
2023-03-12T09:42:24.850Z,12.60
2023-03-12T09:44:54.798Z,12.70
2023-03-12T09:47:26.590Z,12.70
2023-03-12T09:49:58.152Z,12.60
2023-03-12T09:52:28.965Z,12.70
2023-03-12T09:55:00.405Z,12.90
2023-03-12T09:57:29.988Z,13.00
2023-03-12T09:59:58.545Z,13.10
2023-03-12T10:02:37.100Z,13.00
2023-03-12T10:05:10.684Z,13.00
2023-03-12T10:07:42.920Z,13.10
2023-03-12T10:10:17.456Z,13.00
2023-03-12T10:12:52.824Z,12.70
2023-03-12T10:15:28.747Z,12.80
2023-03-12T10:18:04.920Z,12.90
2023-03-12T10:20:46.783Z,13.00
2023-03-12T10:23:21.292Z,13.00
2023-03-12T10:25:52.304Z,13.20
2023-03-12T10:28:22.322Z,13.20
2023-03-12T10:30:53.452Z,13.00
2023-03-12T10:33:22.108Z,13.00
2023-03-12T10:35:52.925Z,13.00
2023-03-12T10:38:22.752Z,13.10
2023-03-12T10:40:51.169Z,13.30
2023-03-12T10:43:19.586Z,13.20
2023-03-12T10:45:53.557Z,13.20
2023-03-12T10:48:23.063Z,13.20
2023-03-12T10:51:04.114Z,13.20
2023-03-12T10:53:33.274Z,13.20
2023-03-12T10:56:02.939Z,13.20
2023-03-12T10:58:36.090Z,13.30
2023-03-12T11:01:05.788Z,13.20
2023-03-12T11:03:35.036Z,13.30
2023-03-12T11:06:08.118Z,13.20
2023-03-12T11:08:37.973Z,13.30
2023-03-12T11:11:06.931Z,13.30
2023-03-12T11:13:36.165Z,13.30
2023-03-12T11:16:22.986Z,13.30
2023-03-12T11:18:56.440Z,13.30
2023-03-12T11:21:26.547Z,13.20
2023-03-12T11:24:11.837Z,13.20
2023-03-12T11:26:45.680Z,13.30
2023-03-12T11:29:19.070Z,13.40
2023-03-12T11:31:53.257Z,13.30
2023-03-12T11:34:23.368Z,13.40
2023-03-12T11:36:57.515Z,13.60
2023-03-12T11:39:29.337Z,13.50
2023-03-12T11:42:04.413Z,13.40
2023-03-12T11:44:35.720Z,13.50
2023-03-12T11:47:12.137Z,13.60
2023-03-12T11:49:49.910Z,13.70
2023-03-12T11:52:28.290Z,13.60
2023-03-12T11:55:16.897Z,13.60
2023-03-12T11:57:51.614Z,13.50
2023-03-12T12:00:22.518Z,13.50
2023-03-12T12:03:03.243Z,13.60
2023-03-12T12:05:39.722Z,13.80
2023-03-12T12:08:13.771Z,13.70
2023-03-12T12:10:46.617Z,13.70
2023-03-12T12:13:19.646Z,13.80
2023-03-12T12:15:52.148Z,13.80
2023-03-12T12:18:30.058Z,13.90
2023-03-12T12:21:02.366Z,13.90
2023-03-12T12:23:38.251Z,13.70
2023-03-12T12:26:08.568Z,13.60
2023-03-12T12:28:50.566Z,13.60
2023-03-12T12:31:24.701Z,13.80
2023-03-12T12:34:03.347Z,13.80
2023-03-12T12:36:33.575Z,13.70
2023-03-12T12:39:06.164Z,13.60
2023-03-12T12:41:37.218Z,13.70
2023-03-12T12:44:06.665Z,13.60
2023-03-12T12:49:20.954Z,13.80
2023-03-12T12:51:51.951Z,13.90
2023-03-12T12:54:25.625Z,13.80
2023-03-12T12:56:55.409Z,13.60
2023-03-12T12:59:31.676Z,13.70
2023-03-12T13:02:01.282Z,13.70
2023-03-12T13:04:50.610Z,13.80
2023-03-12T13:07:34.215Z,13.80
2023-03-12T13:10:06.589Z,13.90
2023-03-12T13:12:38.631Z,13.80
2023-03-12T13:15:34.723Z,13.80
2023-03-12T13:18:05.216Z,13.70
2023-03-12T13:20:35.757Z,13.90
2023-03-12T13:23:18.969Z,13.70
2023-03-12T13:25:54.308Z,13.60
2023-03-12T13:28:35.956Z,13.80
2023-03-12T13:31:25.213Z,13.90
2023-03-12T13:33:54.501Z,13.90
2023-03-12T13:36:24.622Z,13.80
2023-03-12T13:38:57.699Z,13.80
2023-03-12T13:41:35.032Z,13.70
2023-03-12T13:44:18.290Z,13.70
2023-03-12T13:46:47.213Z,13.70
2023-03-12T13:49:19.791Z,13.80
2023-03-12T13:51:59.795Z,13.90
2023-03-12T13:54:33.057Z,13.90
2023-03-12T13:57:04.420Z,13.70
2023-03-12T13:59:33.505Z,13.70
2023-03-12T14:02:04.924Z,13.60
2023-03-12T14:04:36.167Z,13.70
2023-03-12T14:07:22.195Z,13.70
2023-03-12T14:09:54.680Z,13.80
2023-03-12T14:12:29.563Z,13.80
2023-03-12T14:15:12.767Z,13.50
2023-03-12T14:17:41.833Z,13.50
2023-03-12T14:20:13.822Z,13.50
2023-03-12T14:22:44.854Z,13.80
2023-03-12T14:25:15.464Z,13.50
2023-03-12T14:27:48.314Z,13.40
2023-03-12T14:30:21.063Z,13.40
2023-03-12T14:32:50.987Z,13.40
2023-03-12T14:35:20.820Z,13.50
2023-03-12T14:37:52.820Z,13.40
2023-03-12T14:40:23.486Z,13.40
2023-03-12T14:42:53.356Z,13.50
2023-03-12T14:45:23.095Z,13.40
2023-03-12T14:47:54.731Z,13.40
2023-03-12T14:50:24.515Z,13.50
2023-03-12T14:52:53.194Z,13.30
2023-03-12T14:55:22.754Z,13.30
2023-03-12T14:57:51.238Z,13.30
2023-03-12T15:00:26.214Z,13.20
2023-03-12T15:02:55.854Z,13.20
2023-03-12T15:05:24.894Z,13.20
2023-03-12T15:07:55.427Z,13.40
2023-03-12T15:10:34.881Z,13.40
2023-03-12T15:13:03.812Z,13.20
2023-03-12T15:15:42.559Z,13.10
2023-03-12T15:18:14.752Z,13.10
2023-03-12T15:20:43.423Z,13.10
2023-03-12T15:23:13.247Z,13.00
2023-03-12T15:25:41.890Z,13.00
2023-03-12T15:28:25.910Z,13.00
2023-03-12T15:31:07.735Z,12.90
2023-03-12T15:33:36.297Z,13.00
2023-03-12T15:36:06.338Z,13.00
2023-03-12T15:38:38.353Z,13.00
2023-03-12T15:41:10.560Z,13.00
2023-03-12T15:43:39.020Z,13.00
2023-03-12T15:46:09.070Z,13.10
2023-03-12T15:48:39.445Z,13.00
2023-03-12T15:51:13.724Z,12.90
2023-03-12T15:53:42.316Z,12.90
2023-03-12T15:56:22.172Z,12.90
2023-03-12T15:58:59.819Z,13.00
2023-03-12T16:01:29.878Z,12.90
2023-03-12T16:03:58.734Z,12.80
2023-03-12T16:06:29.790Z,12.80
2023-03-12T16:08:59.172Z,12.70
2023-03-12T16:11:28.687Z,12.80
2023-03-12T16:14:00.065Z,12.80
2023-03-12T16:16:29.978Z,12.70
2023-03-12T16:18:58.479Z,12.70
2023-03-12T16:21:26.937Z,12.60
2023-03-12T16:23:55.377Z,12.60
2023-03-12T16:26:23.799Z,12.60
2023-03-12T16:28:52.370Z,12.60
2023-03-12T16:31:20.845Z,12.50
2023-03-12T16:33:50.610Z,12.60
2023-03-12T16:36:19.316Z,12.60
2023-03-12T16:38:47.956Z,12.60
2023-03-12T16:41:17.940Z,12.60
2023-03-12T16:43:47.852Z,12.60
2023-03-12T16:46:18.701Z,12.60
2023-03-12T16:48:47.392Z,12.50
2023-03-12T16:51:17.551Z,12.50
2023-03-12T16:53:47.584Z,12.50
2023-03-12T16:56:20.721Z,12.60
2023-03-12T16:58:49.671Z,12.60
2023-03-12T17:01:20.077Z,12.70
2023-03-12T17:03:50.427Z,12.60
2023-03-12T17:06:21.927Z,12.60
2023-03-12T17:08:50.761Z,12.50
2023-03-12T17:11:20.299Z,12.50
2023-03-12T17:13:50.056Z,12.60
2023-03-12T17:16:18.565Z,12.60
2023-03-12T17:18:47.058Z,12.60
2023-03-12T17:21:16.376Z,12.60
2023-03-12T17:23:47.589Z,12.60
2023-03-12T17:26:16.028Z,12.60
2023-03-12T17:28:44.542Z,12.60
2023-03-12T17:31:13.153Z,12.50
2023-03-12T17:33:43.255Z,12.50
2023-03-12T17:36:11.873Z,12.50
2023-03-12T17:38:40.320Z,12.50
2023-03-12T17:41:25.634Z,12.50
2023-03-12T17:43:55.099Z,12.50
2023-03-12T17:46:23.762Z,12.50
2023-03-12T17:48:52.354Z,12.40
2023-03-12T17:51:21.312Z,12.40
2023-03-12T17:53:49.797Z,12.50
2023-03-12T17:56:19.605Z,12.50
2023-03-12T17:58:48.336Z,12.50
2023-03-12T18:01:17.123Z,12.50
2023-03-12T18:03:45.676Z,12.50
2023-03-12T18:06:14.372Z,12.50
2023-03-12T18:08:42.814Z,12.50
2023-03-12T18:11:11.275Z,12.60
2023-03-12T18:13:41.106Z,12.60
2023-03-12T18:16:09.601Z,12.60
2023-03-12T18:18:38.013Z,12.60
2023-03-12T18:21:06.638Z,12.50
2023-03-12T18:23:35.067Z,12.60
2023-03-12T18:26:03.734Z,12.60
2023-03-12T18:28:32.186Z,12.50
2023-03-12T18:31:02.110Z,12.60
2023-03-12T18:33:31.104Z,12.60
2023-03-12T18:35:59.568Z,12.60
2023-03-12T18:38:28.682Z,12.60
2023-03-12T18:41:03.030Z,12.60
2023-03-12T18:43:31.407Z,12.70
2023-03-12T18:46:01.218Z,12.70
2023-03-12T18:48:29.732Z,12.70
2023-03-12T18:50:58.293Z,12.70
2023-03-12T18:53:26.834Z,12.60
2023-03-12T18:55:56.501Z,12.60
2023-03-12T18:58:25.475Z,12.50
2023-03-12T19:00:54.583Z,12.60
2023-03-12T19:03:25.307Z,12.50
2023-03-12T19:06:01.426Z,12.50
2023-03-12T19:08:30.038Z,12.40
2023-03-12T19:10:58.453Z,12.40
2023-03-12T19:13:27.182Z,12.40
2023-03-12T19:15:58.960Z,12.40
2023-03-12T19:18:28.808Z,12.30
2023-03-12T19:20:57.251Z,12.30
2023-03-12T19:23:25.730Z,12.30
2023-03-12T19:25:54.142Z,12.20
2023-03-12T19:28:22.670Z,12.20
2023-03-12T19:30:51.093Z,12.10
2023-03-12T19:33:19.538Z,12.10
2023-03-12T19:35:49.433Z,12.10
2023-03-12T19:38:17.898Z,12.10
2023-03-12T19:40:49.630Z,12.10
2023-03-12T19:43:18.453Z,12.00
2023-03-12T19:45:46.953Z,12.00
2023-03-12T19:48:15.684Z,12.00
2023-03-12T19:50:45.076Z,12.00
2023-03-12T19:53:14.965Z,12.00
2023-03-12T19:55:43.373Z,12.00
2023-03-12T19:58:11.826Z,11.90
2023-03-12T20:00:41.258Z,12.00
2023-03-12T20:03:09.791Z,12.00
2023-03-12T20:05:38.311Z,12.00
2023-03-12T20:08:07.004Z,12.10
2023-03-12T20:10:36.928Z,12.10
2023-03-12T20:13:05.321Z,12.00
2023-03-12T20:15:33.765Z,12.10
2023-03-12T20:18:02.143Z,12.10
2023-03-12T20:20:30.611Z,12.00
2023-03-12T20:22:59.018Z,12.00
2023-03-12T20:25:27.429Z,12.00
2023-03-12T20:27:58.243Z,11.90
2023-03-12T20:30:26.735Z,11.90
2023-03-12T20:32:55.276Z,11.90
2023-03-12T20:35:23.778Z,11.90
2023-03-12T20:37:52.180Z,11.90
2023-03-12T20:40:20.813Z,11.90
2023-03-12T20:42:49.277Z,11.90
2023-03-12T20:45:19.210Z,11.90
2023-03-12T20:47:47.617Z,11.90
2023-03-12T20:50:16.113Z,11.80
2023-03-12T20:52:44.605Z,11.80
2023-03-12T20:55:13.033Z,11.80
2023-03-12T20:57:41.428Z,11.70
2023-03-12T21:00:10.508Z,11.70
2023-03-12T21:02:40.343Z,11.70
2023-03-12T21:05:11.414Z,11.60
2023-03-12T21:07:39.872Z,11.60
2023-03-12T21:10:08.972Z,11.60
2023-03-12T21:12:39.671Z,11.70
2023-03-12T21:15:08.750Z,11.70
2023-03-12T21:17:38.112Z,11.70
2023-03-12T21:20:10.041Z,11.70
2023-03-12T21:22:52.281Z,11.60
2023-03-12T21:25:20.723Z,11.50
2023-03-12T21:27:51.493Z,11.60
2023-03-12T21:30:20.412Z,11.60
2023-03-12T21:32:48.932Z,11.60
2023-03-12T21:35:20.078Z,11.60
2023-03-12T21:37:48.480Z,11.60
2023-03-12T21:40:17.473Z,11.60
2023-03-12T21:42:45.825Z,11.60
2023-03-12T21:45:14.251Z,11.50
2023-03-12T21:47:42.714Z,11.60
2023-03-12T21:50:14.875Z,11.50
2023-03-12T21:52:49.095Z,11.50
2023-03-12T21:55:17.906Z,11.50
2023-03-12T21:57:46.644Z,11.50
2023-03-12T22:00:15.715Z,11.50
2023-03-12T22:02:44.683Z,11.50
2023-03-12T22:05:13.661Z,11.40
2023-03-12T22:07:42.162Z,11.30
2023-03-12T22:10:12.648Z,11.20
2023-03-12T22:12:41.570Z,11.20
2023-03-12T22:15:10.396Z,11.10
2023-03-12T22:17:38.842Z,11.20
2023-03-12T22:20:16.529Z,11.10
2023-03-12T22:22:45.053Z,11.00
2023-03-12T22:25:14.893Z,11.10
2023-03-12T22:27:43.365Z,11.00
2023-03-12T22:30:14.787Z,11.00
2023-03-12T22:32:43.312Z,11.10
2023-03-12T22:35:11.782Z,11.10
2023-03-12T22:37:40.167Z,11.10
2023-03-12T22:40:09.919Z,11.00
2023-03-12T22:42:41.135Z,10.90
2023-03-12T22:45:10.098Z,10.90
2023-03-12T22:47:38.592Z,10.90
2023-03-12T22:50:07.574Z,10.90
2023-03-12T22:52:36.129Z,10.90
2023-03-12T22:55:04.631Z,11.00
2023-03-12T22:57:34.543Z,10.90
2023-03-12T23:00:06.462Z,10.90
2023-03-12T23:02:35.477Z,10.80
2023-03-12T23:05:03.977Z,10.90
2023-03-12T23:07:32.565Z,10.80
2023-03-12T23:10:01.054Z,10.80
2023-03-12T23:12:30.410Z,10.90
2023-03-12T23:14:58.760Z,11.00
2023-03-12T23:17:28.526Z,10.90
2023-03-12T23:19:56.912Z,11.00
2023-03-12T23:22:25.364Z,11.10
2023-03-12T23:24:53.950Z,11.10
2023-03-12T23:27:22.414Z,11.10
2023-03-12T23:29:50.968Z,11.10
2023-03-12T23:32:19.420Z,11.10
2023-03-12T23:34:49.274Z,11.10
2023-03-12T23:37:17.714Z,11.10
2023-03-12T23:39:54.540Z,11.10
2023-03-12T23:42:23.600Z,11.10
2023-03-12T23:44:52.000Z,11.00
2023-03-12T23:47:20.491Z,11.00
2023-03-12T23:49:50.308Z,11.00
2023-03-12T23:52:18.786Z,11.00
2023-03-12T23:54:47.225Z,11.10
2023-03-12T23:57:15.653Z,11.00
2023-03-12T23:59:44.100Z,11.00
